Airfield :
LOGIN :

Register | Disclaimer

   EN    FR    IT 

 










Legend :    VFR   Marginal VFR   IFR   Intensive IFR   Very Intensive IFR
Visi :
Ceiling :
>= 8 km
>= 3000ft
5 to 8 km
1000 to 3000 ft
1500m to 5 km
500 to 1000 ft
800 to 1500m
200 to 500 ft
< 800m
< 200 ft
Symbols :   Thunderstorms  Fog  Heavy snow  Heavy precipitations  Wind > 20 kt
SIGMETs :     Misc.  Thunderstorms  Icing  Turbulence  Mountain Waves  Volcanic Ashes






- Airport Elevation : 218 ft
- IATA code : LBG


LFPB - Paris / Le Bourget

CURRENT METAR :
  • 080300Z AUTO 20015KT 9999 OVC023 11/06 Q1012 BECMG 21015G25KT BKN012

EXPIRED METARs :
  • 080230Z AUTO 21018KT 9999 OVC020 11/07 Q1013 BECMG 21015G25KT BKN012
  • 080200Z AUTO 20015KT 180V240 9999 BKN018 OVC023 11/07 Q1013 BECMG 21015G25KT BKN012
  • 080130Z AUTO 20011KT 9999 BKN015/// OVC021/// 11/08 Q1014
  • 080100Z AUTO 19011KT 9999 SCT019 OVC030 11/08 Q1014 TEMPO BKN010
  • 080030Z AUTO 19008KT 9999 FEW016 OVC032 11/08 Q1014 TEMPO BKN010

TAF TAF LFPB
Valid from the 08 at 00:00 until the 09 at 00:00 UTC


072300Z 0800/0824 19010KT 9999 BKN030
TEMPO 0800/0803 BKN010
BECMG 0803/0805 21015G25KT BKN012
TEMPO 0807/0809 3500 RA BKN008
BECMG 0813/0815 CAVOK
TEMPO 0819/0820 25020G40KT 2000 SHRA SCT018TCU
ATIS : +33 1 48 62 43 92



MET'MAP, your aeronautical weather chart ! - Copyright ORBIFLY December 2007 - Disclaimer

ORBIFLY MET'MAP TEAM :

Programming & Development : Alexandra Zaïnal
Concept & original design : Baudouin d'Aumeries
Assistance for programming : Marc-Olivier Méhu
Technical & hardware support : Manuel Goepfert

Contact : metmap@orbifly.com




SOURCES & CREDITS :

   NOAA